Time;durP1;ratioP1;P1;durP2;ratioP2;P2;SDS_P1;SDS_P2;PMS_P1;PMS_P2;Temp;Humidity;BMP_temperature;BMP_pressure;BME280_temperature;BME280_humidity;BME280_pressure;Samples;Min_cycle;Max_cycle;Signal;HPM_P1;HPM_P2
2023/06/26 19:54:05;;;;;;;4.35;1.55;;;;;;;;;;5119103;27;20494;-59
2023/06/26 19:56:32;;;;;;;2.00;1.48;;;;;;;;;;5119055;27;20048;-61
2023/06/26 19:58:58;;;;;;;4.72;1.33;;;;;;;;;;5120472;27;20125;-61
2023/06/26 20:01:24;;;;;;;1.25;1.15;;;;;;;;;;5120241;27;20056;-61
2023/06/26 20:03:51;;;;;;;5.60;1.20;;;;;;;;;;5121218;27;20062;-62
2023/06/26 20:06:17;;;;;;;1.70;1.23;;;;;;;;;;5121487;27;20095;-61
2023/06/26 20:08:44;;;;;;;5.35;1.55;;;;;;;;;;5121271;27;20052;-62
2023/06/26 20:11:10;;;;;;;6.25;1.30;;;;;;;;;;5121629;27;20515;-62
2023/06/26 20:13:37;;;;;;;3.90;1.40;;;;;;;;;;5120636;27;20056;-62
2023/06/26 20:16:03;;;;;;;7.47;2.08;;;;;;;;;;5119302;27;20243;-61
2023/06/26 20:18:30;;;;;;;8.65;1.52;;;;;;;;;;5121186;27;20488;-61
2023/06/26 20:20:57;;;;;;;6.13;1.52;;;;;;;;;;5102169;27;20056;-60
2023/06/26 20:23:24;;;;;;;4.38;1.60;;;;;;;;;;5119974;27;20418;-60
2023/06/26 20:25:50;;;;;;;4.43;1.42;;;;;;;;;;5119053;27;20058;-59
2023/06/26 20:28:17;;;;;;;7.65;1.95;;;;;;;;;;5098328;27;20064;-61
2023/06/26 20:30:43;;;;;;;2.53;1.50;;;;;;;;;;5116971;27;20052;-60
2023/06/26 20:33:09;;;;;;;3.28;1.70;;;;;;;;;;5119227;27;20190;-60
2023/06/26 20:35:36;;;;;;;1.58;1.30;;;;;;;;;;5107238;27;20069;-61
2023/06/26 20:38:02;;;;;;;9.40;1.60;;;;;;;;;;5135692;27;20865;-60
2023/06/26 20:40:29;;;;;;;4.97;1.70;;;;;;;;;;5131296;27;20052;-60
2023/06/26 20:42:55;;;;;;;2.55;1.30;;;;;;;;;;5130850;27;20052;-60
2023/06/26 20:45:23;;;;;;;3.83;1.50;;;;;;;;;;5118032;27;20087;-59
2023/06/26 20:47:50;;;;;;;7.65;1.50;;;;;;;;;;5119808;27;20614;-60
2023/06/26 20:50:16;;;;;;;3.67;1.23;;;;;;;;;;5119642;27;20135;-61
2023/06/26 20:52:43;;;;;;;4.30;1.35;;;;;;;;;;5100428;27;20061;-60
2023/06/26 20:55:10;;;;;;;4.43;1.60;;;;;;;;;;5078636;28;20052;-61
2023/06/26 20:57:37;;;;;;;2.20;1.38;;;;;;;;;;5074389;28;20045;-60
2023/06/26 21:00:03;;;;;;;7.93;1.50;;;;;;;;;;5077933;28;20744;-59
2023/06/26 21:02:30;;;;;;;3.97;1.60;;;;;;;;;;5078398;28;20102;-59
2023/06/26 21:04:56;;;;;;;7.00;1.60;;;;;;;;;;5065921;28;20119;-61
2023/06/26 21:07:23;;;;;;;7.22;1.52;;;;;;;;;;5062855;28;20060;-60
2023/06/26 21:09:51;;;;;;;1.73;1.20;;;;;;;;;;5064391;28;20514;-59
2023/06/26 21:12:18;;;;;;;7.82;1.90;;;;;;;;;;5065115;28;20699;-58
2023/06/26 21:14:45;;;;;;;6.57;1.58;;;;;;;;;;5063527;28;20654;-58
2023/06/26 21:17:11;;;;;;;6.55;1.88;;;;;;;;;;5065361;28;20053;-59
2023/06/26 21:19:37;;;;;;;2.05;1.23;;;;;;;;;;5064758;28;20139;-60
2023/06/26 21:22:04;;;;;;;2.25;1.33;;;;;;;;;;5064016;28;20045;-60
2023/06/26 21:24:30;;;;;;;2.25;1.55;;;;;;;;;;5064157;28;20053;-42
2023/06/26 21:26:56;;;;;;;2.92;1.52;;;;;;;;;;5064994;28;20426;-60
2023/06/26 21:29:23;;;;;;;5.32;1.55;;;;;;;;;;5062838;28;20156;-59
2023/06/26 21:31:50;;;;;;;2.15;1.23;;;;;;;;;;5064241;28;20150;-59
2023/06/26 21:34:16;;;;;;;6.07;1.60;;;;;;;;;;5063273;28;20053;-60
2023/06/26 21:36:43;;;;;;;3.65;1.58;;;;;;;;;;5062766;28;20179;-57
2023/06/26 21:39:09;;;;;;;5.13;1.98;;;;;;;;;;5064798;28;20524;-61
2023/06/26 21:41:35;;;;;;;3.22;1.30;;;;;;;;;;5061853;28;20061;-61
2023/06/26 21:44:02;;;;;;;4.45;1.42;;;;;;;;;;5064555;28;20938;-61
2023/06/26 21:46:29;;;;;;;1.80;1.25;;;;;;;;;;5062904;28;20176;-62
2023/06/26 21:48:55;;;;;;;2.28;1.40;;;;;;;;;;5065182;28;20484;-61
2023/06/26 21:51:22;;;;;;;3.58;1.60;;;;;;;;;;5058170;28;20464;-61
2023/06/26 21:53:48;;;;;;;3.30;1.63;;;;;;;;;;5098974;27;20109;-60
2023/06/26 21:56:15;;;;;;;2.30;1.40;;;;;;;;;;5105581;27;20110;-60
2023/06/26 21:58:41;;;;;;;3.58;1.73;;;;;;;;;;5109031;27;20105;-61
2023/06/26 22:01:08;;;;;;;3.30;1.80;;;;;;;;;;5101838;27;20048;-61
2023/06/26 22:03:36;;;;;;;6.22;1.67;;;;;;;;;;5104008;27;20183;-61
2023/06/26 22:06:03;;;;;;;5.15;1.83;;;;;;;;;;5104225;27;20056;-60
2023/06/26 22:08:30;;;;;;;3.40;2.17;;;;;;;;;;5103763;27;20537;-61
2023/06/26 22:10:56;;;;;;;11.05;2.10;;;;;;;;;;5105911;27;20055;-62
2023/06/26 22:13:23;;;;;;;4.20;1.52;;;;;;;;;;5104810;27;20150;-60
2023/06/26 22:15:49;;;;;;;6.45;1.80;;;;;;;;;;5103719;27;20048;-59
2023/06/26 22:18:15;;;;;;;5.82;2.10;;;;;;;;;;5103034;27;20059;-61
2023/06/26 22:20:42;;;;;;;6.22;1.88;;;;;;;;;;5104506;27;20051;-60
2023/06/26 22:23:08;;;;;;;3.33;1.70;;;;;;;;;;5103698;27;20138;-60
2023/06/26 22:25:35;;;;;;;7.05;1.52;;;;;;;;;;5104013;27;20056;-60
2023/06/26 22:28:01;;;;;;;8.35;1.90;;;;;;;;;;5104083;27;20052;-61
2023/06/26 22:30:28;;;;;;;8.00;1.77;;;;;;;;;;5104561;27;20113;-60
2023/06/26 22:32:54;;;;;;;3.65;1.50;;;;;;;;;;5103031;27;20052;-60
2023/06/26 22:35:21;;;;;;;5.00;2.03;;;;;;;;;;5104793;27;20064;-61
2023/06/26 22:37:48;;;;;;;6.38;1.90;;;;;;;;;;5102833;27;20060;-60
2023/06/26 22:40:15;;;;;;;5.10;1.77;;;;;;;;;;5102108;27;20056;-60
2023/06/26 22:42:42;;;;;;;5.45;1.60;;;;;;;;;;5101574;27;20056;-62
2023/06/26 22:45:10;;;;;;;5.93;1.80;;;;;;;;;;5103874;27;20117;-60
2023/06/26 22:47:36;;;;;;;5.38;1.90;;;;;;;;;;5102213;27;20543;-61
2023/06/26 22:50:04;;;;;;;2.90;1.67;;;;;;;;;;5102857;27;20211;-59
2023/06/26 22:52:30;;;;;;;5.05;1.70;;;;;;;;;;5103303;27;20055;-61
2023/06/26 22:54:57;;;;;;;5.72;2.33;;;;;;;;;;5103877;27;20087;-61
2023/06/26 22:57:23;;;;;;;4.43;1.98;;;;;;;;;;5103816;27;21015;-61
2023/06/26 22:59:50;;;;;;;3.00;1.50;;;;;;;;;;5103839;27;20063;-58
2023/06/26 23:02:18;;;;;;;3.78;1.95;;;;;;;;;;5101129;27;20054;-61
2023/06/26 23:04:45;;;;;;;4.15;1.73;;;;;;;;;;5102264;27;20574;-61
2023/06/26 23:07:12;;;;;;;2.53;1.77;;;;;;;;;;5101889;27;20052;-61
2023/06/26 23:09:39;;;;;;;3.85;1.70;;;;;;;;;;5102824;27;20052;-61
2023/06/26 23:12:06;;;;;;;2.58;1.50;;;;;;;;;;5104921;27;20505;-59
2023/06/26 23:14:33;;;;;;;6.55;1.83;;;;;;;;;;5103041;27;20616;-57
2023/06/26 23:17:05;;;;;;;6.30;2.03;;;;;;;;;;5102758;27;20524;-60
2023/06/26 23:19:37;;;;;;;9.10;2.10;;;;;;;;;;5104197;27;20476;-61
2023/06/26 23:22:09;;;;;;;3.60;2.15;;;;;;;;;;5103118;27;20048;-61
2023/06/26 23:24:36;;;;;;;3.38;1.65;;;;;;;;;;5100858;27;20052;-61
2023/06/26 23:27:03;;;;;;;2.90;1.83;;;;;;;;;;5103460;27;20048;-61
2023/06/26 23:29:32;;;;;;;6.53;2.00;;;;;;;;;;5104192;27;20051;-60
2023/06/26 23:31:59;;;;;;;4.80;1.90;;;;;;;;;;5103386;27;20512;-60
2023/06/26 23:34:25;;;;;;;3.92;2.05;;;;;;;;;;5100869;27;20048;-61
2023/06/26 23:36:52;;;;;;;5.20;1.60;;;;;;;;;;5103001;27;20146;-61
2023/06/26 23:39:18;;;;;;;3.97;1.70;;;;;;;;;;5101071;27;20066;-60
2023/06/26 23:41:45;;;;;;;2.80;1.83;;;;;;;;;;5102065;27;20051;-60
2023/06/26 23:44:18;;;;;;;6.35;1.60;;;;;;;;;;5101409;27;20056;-59
2023/06/26 23:46:44;;;;;;;3.65;1.95;;;;;;;;;;5103385;27;20109;-58
2023/06/26 23:49:11;;;;;;;2.40;1.65;;;;;;;;;;5102665;27;20488;-60
2023/06/26 23:51:37;;;;;;;2.95;1.75;;;;;;;;;;5102452;27;20056;-58
2023/06/26 23:54:04;;;;;;;5.35;2.53;;;;;;;;;;5101992;27;20078;-58
2023/06/26 23:56:31;;;;;;;4.28;1.50;;;;;;;;;;5103255;27;20101;-60
2023/06/26 23:58:57;;;;;;;3.17;1.88;;;;;;;;;;5103257;27;20524;-61
